»·PEaware :: N523JS KBLH-KSMX

N523JS :: KBLH-KSMX

FLIGHT INFORMATION

Flight Status: Arrived
Operator: Privately registered:
United States
More flights under this callsign
Pilot: Marlyn S. (2940)
Aircraft: CANADAIR CL-600 CRJ-700
(CRJ7)
More flights by this aircraft type
Origin: KBLH Blythe
United States
Destination: KSMX Santa Maria Pub/Capt Hancock
United States
More flights between these airports :: More routes between these airports
Route: +BLH V16 PDZV186 FIM V386 RZS GVO
File this flight plan on PilotEdge
Remarks:
Altitude:
(Current/Filed)
24,000ft
Speed:
(Current/Filed)
455kts
Departed: 18-Aug-16 07:10 PM
Arrived: 18-Aug-16 08:02 PM
Distance/Time
Traveled:
294nm/0:52
Distance/Time
To Go:
Arrived

Flight Plot

Page will automatically refresh every two minutes.

Flight plan parsing failed; only flown route is shown


Map Options




Map Legend


Flown Route
Filed Route
Departure Airport
Arrival Airport
Navaid (VOR, NDB)
Fix

Horizontal Profiles

Position Reports

Time Latitude Longitude Heading Altitude Ground
Speed
18-Aug-16 18:45 33.616576 -114.716494 269 404ft 0kts
18-Aug-16 18:46 33.615433 -114.716172 92 404ft 19kts
18-Aug-16 18:47 33.615559 -114.706443 59 404ft 18kts
18-Aug-16 18:48 33.615913 -114.706130 357 404ft 0kts
18-Aug-16 18:49 33.615914 -114.706130 357 404ft 0kts
18-Aug-16 18:50 33.615916 -114.706130 357 404ft 0kts
18-Aug-16 18:51 33.615918 -114.706130 357 404ft 0kts
18-Aug-16 18:52 33.615920 -114.706130 357 404ft 0kts
18-Aug-16 18:53 33.615922 -114.706130 357 404ft 0kts
18-Aug-16 18:54 33.615924 -114.706131 357 404ft 0kts
18-Aug-16 18:55 33.615926 -114.706131 357 404ft 0kts
18-Aug-16 18:56 33.615927 -114.706131 357 404ft 0kts
18-Aug-16 18:57 33.615929 -114.706131 357 404ft 0kts
18-Aug-16 18:58 33.615931 -114.706131 357 404ft 0kts
18-Aug-16 18:59 33.615933 -114.706131 357 404ft 0kts
18-Aug-16 19:00 33.615935 -114.706131 357 404ft 0kts
18-Aug-16 19:01 33.615937 -114.706131 357 404ft 0kts
18-Aug-16 19:02 33.615939 -114.706131 357 404ft 0kts
18-Aug-16 19:03 33.615940 -114.706131 357 404ft 0kts
18-Aug-16 19:04 33.615942 -114.706131 357 404ft 0kts
18-Aug-16 19:05 33.615944 -114.706131 357 404ft 0kts
18-Aug-16 19:06 33.615946 -114.706131 357 404ft 0kts
18-Aug-16 19:07 33.615948 -114.706131 357 404ft 0kts
18-Aug-16 19:08 33.616353 -114.706208 336 404ft 6kts
18-Aug-16 19:09 33.616591 -114.731773 266 1115ft 192kts
18-Aug-16 19:10 33.598599 -114.798299 273 5066ft 331kts
18-Aug-16 19:11 33.625660 -114.936546 281 6263ft 359kts
18-Aug-16 19:12 33.642764 -115.035567 280 7535ft 367kts
18-Aug-16 19:13 33.666659 -115.177472 280 9325ft 375kts
18-Aug-16 19:14 33.683960 -115.280839 280 10604ft 381kts
18-Aug-16 19:15 33.704895 -115.406660 280 12134ft 388kts
18-Aug-16 19:16 33.726103 -115.534983 280 14495ft 395kts
18-Aug-16 19:17 33.747607 -115.665982 280 16901ft 401kts
18-Aug-16 19:18 33.769222 -115.798569 280 19270ft 405kts
18-Aug-16 19:19 33.791038 -115.932490 280 21082ft 411kts
18-Aug-16 19:20 33.812667 -116.067923 280 22883ft 412kts
18-Aug-16 19:21 33.834517 -116.205051 280 23933ft 430kts
18-Aug-16 19:22 33.857724 -116.351713 280 23960ft 457kts
18-Aug-16 19:23 33.873546 -116.504562 272 23950ft 464kts
18-Aug-16 19:24 33.880921 -116.660049 273 23959ft 464kts
18-Aug-16 19:25 33.888106 -116.815421 273 23968ft 463kts
18-Aug-16 19:26 33.895017 -116.970228 273 23969ft 462kts
18-Aug-16 19:27 33.901694 -117.124158 272 23968ft 460kts
18-Aug-16 19:28 33.908192 -117.278439 272 23968ft 461kts
18-Aug-16 19:29 33.914508 -117.433040 272 23964ft 462kts
18-Aug-16 19:30 33.936014 -117.583734 292 23968ft 461kts
18-Aug-16 19:31 33.983574 -117.726838 291 23772ft 457kts
18-Aug-16 19:32 34.030298 -117.869602 291 23769ft 457kts
18-Aug-16 19:33 34.076950 -118.012217 291 23880ft 456kts
18-Aug-16 19:34 34.123313 -118.154563 291 23915ft 456kts
18-Aug-16 19:35 34.169687 -118.297614 291 23929ft 456kts
18-Aug-16 19:36 34.215894 -118.440821 291 23955ft 457kts
18-Aug-16 19:37 34.260590 -118.584861 287 23958ft 457kts
18-Aug-16 19:38 34.301750 -118.729816 293 23959ft 456kts
18-Aug-16 19:39 34.352474 -118.871171 290 23176ft 456kts
18-Aug-16 19:40 34.380699 -119.019444 281 20903ft 445kts
18-Aug-16 19:41 34.405927 -119.163587 281 18550ft 432kts
18-Aug-16 19:42 34.430354 -119.304995 281 15962ft 422kts
18-Aug-16 19:43 34.453820 -119.441904 280 13420ft 407kts
18-Aug-16 19:44 34.476381 -119.574502 280 10914ft 394kts
18-Aug-16 19:45 34.496962 -119.696029 280 8308ft 319kts
18-Aug-16 19:46 34.511258 -119.793389 272 5986ft 277kts
18-Aug-16 19:47 34.516698 -119.874965 274 5976ft 228kts
18-Aug-16 19:48 34.521900 -119.951256 274 5980ft 225kts
18-Aug-16 19:49 34.527026 -120.027022 274 5979ft 225kts
18-Aug-16 19:50 34.539186 -120.101148 306 5543ft 236kts
18-Aug-16 19:51 34.582389 -120.154631 314 4372ft 186kts
18-Aug-16 19:52 34.615791 -120.196248 314 4378ft 169kts
18-Aug-16 19:53 34.649571 -120.239315 312 3482ft 165kts
18-Aug-16 19:54 34.681153 -120.279546 314 3488ft 168kts
18-Aug-16 19:55 34.711549 -120.321128 329 3491ft 170kts
18-Aug-16 19:56 34.753026 -120.349753 329 2637ft 174kts
18-Aug-16 19:57 34.790576 -120.375448 329 2193ft 151kts
18-Aug-16 19:58 34.828332 -120.401380 329 1926ft 164kts
18-Aug-16 19:59 34.866362 -120.427571 329 1251ft 153kts
18-Aug-16 20:00 34.898553 -120.452772 315 268ft 66kts
18-Aug-16 20:01 34.903365 -120.457109 43 268ft 0kts
18-Aug-16 20:02 34.903227 -120.455931 143 268ft 22kts
18-Aug-16 20:03 34.898356 -120.447912 153 268ft 0kts
18-Aug-16 20:04 34.898354 -120.447911 153 268ft 0kts
18-Aug-16 20:05 34.898352 -120.447910 153 268ft 0kts
18-Aug-16 20:06 34.898351 -120.447909 153 268ft 0kts
18-Aug-16 20:07 34.898349 -120.447908 153 268ft 0kts
18-Aug-16 20:08 34.898347 -120.447907 153 268ft 0kts
18-Aug-16 20:09 34.898345 -120.447906 153 268ft 0kts
18-Aug-16 20:10 34.898344 -120.447905 153 268ft 0kts
18-Aug-16 20:11 34.898342 -120.447903 153 268ft 0kts

Navigation Log

Ident Type
Flight plan parsing failed, navigation log unavailable